sensor_id;sensor_type;location;lat;lon;timestamp;P1;durP1;ratioP1;P2;durP2;ratioP2
78877;SDS011;68257;43.514;1.498;2023-06-26T00:02:23;16.37;;;7.27;;
78877;SDS011;68257;43.514;1.498;2023-06-26T00:04:49;12.70;;;6.90;;
78877;SDS011;68257;43.514;1.498;2023-06-26T00:07:18;14.70;;;7.25;;
78877;SDS011;68257;43.514;1.498;2023-06-26T00:09:43;13.43;;;6.73;;
78877;SDS011;68257;43.514;1.498;2023-06-26T00:12:09;14.97;;;7.00;;
78877;SDS011;68257;43.514;1.498;2023-06-26T00:14:34;14.90;;;7.50;;
78877;SDS011;68257;43.514;1.498;2023-06-26T00:16:59;12.38;;;7.18;;
78877;SDS011;68257;43.514;1.498;2023-06-26T00:19:25;14.47;;;7.03;;
78877;SDS011;68257;43.514;1.498;2023-06-26T00:21:50;12.73;;;6.97;;
78877;SDS011;68257;43.514;1.498;2023-06-26T00:24:17;10.52;;;6.45;;
78877;SDS011;68257;43.514;1.498;2023-06-26T00:26:43;12.43;;;6.80;;
78877;SDS011;68257;43.514;1.498;2023-06-26T00:29:11;12.60;;;7.28;;
78877;SDS011;68257;43.514;1.498;2023-06-26T00:31:36;11.00;;;6.67;;
78877;SDS011;68257;43.514;1.498;2023-06-26T00:34:03;12.60;;;7.25;;
78877;SDS011;68257;43.514;1.498;2023-06-26T00:36:28;13.70;;;7.10;;
78877;SDS011;68257;43.514;1.498;2023-06-26T00:38:54;13.77;;;6.87;;
78877;SDS011;68257;43.514;1.498;2023-06-26T00:41:19;13.23;;;7.63;;
78877;SDS011;68257;43.514;1.498;2023-06-26T00:43:45;12.03;;;7.00;;
78877;SDS011;68257;43.514;1.498;2023-06-26T00:46:11;11.77;;;6.67;;
78877;SDS011;68257;43.514;1.498;2023-06-26T00:48:38;13.50;;;7.25;;
78877;SDS011;68257;43.514;1.498;2023-06-26T00:51:04;11.93;;;7.38;;
78877;SDS011;68257;43.514;1.498;2023-06-26T00:53:30;15.67;;;7.20;;
78877;SDS011;68257;43.514;1.498;2023-06-26T00:55:56;13.65;;;7.18;;
78877;SDS011;68257;43.514;1.498;2023-06-26T00:58:22;13.43;;;7.03;;
78877;SDS011;68257;43.514;1.498;2023-06-26T01:00:49;11.37;;;7.47;;
78877;SDS011;68257;43.514;1.498;2023-06-26T01:03:15;14.88;;;7.05;;
78877;SDS011;68257;43.514;1.498;2023-06-26T01:05:40;13.87;;;7.13;;
78877;SDS011;68257;43.514;1.498;2023-06-26T01:08:06;11.20;;;6.60;;
78877;SDS011;68257;43.514;1.498;2023-06-26T01:10:32;15.50;;;7.20;;
78877;SDS011;68257;43.514;1.498;2023-06-26T01:12:58;11.27;;;6.75;;
78877;SDS011;68257;43.514;1.498;2023-06-26T01:15:23;12.17;;;6.90;;
78877;SDS011;68257;43.514;1.498;2023-06-26T01:17:49;11.10;;;6.80;;
78877;SDS011;68257;43.514;1.498;2023-06-26T01:20:15;13.38;;;6.47;;
78877;SDS011;68257;43.514;1.498;2023-06-26T01:23:03;14.23;;;6.72;;
78877;SDS011;68257;43.514;1.498;2023-06-26T01:28:32;12.43;;;6.50;;
78877;SDS011;68257;43.514;1.498;2023-06-26T01:30:59;12.10;;;6.75;;
78877;SDS011;68257;43.514;1.498;2023-06-26T01:33:24;13.03;;;6.80;;
78877;SDS011;68257;43.514;1.498;2023-06-26T01:35:49;17.57;;;6.70;;
78877;SDS011;68257;43.514;1.498;2023-06-26T01:38:15;11.83;;;6.70;;
78877;SDS011;68257;43.514;1.498;2023-06-26T01:40:45;11.30;;;6.70;;
78877;SDS011;68257;43.514;1.498;2023-06-26T01:45:49;12.50;;;7.03;;
78877;SDS011;68257;43.514;1.498;2023-06-26T01:48:16;10.45;;;6.72;;
78877;SDS011;68257;43.514;1.498;2023-06-26T01:50:44;12.30;;;7.25;;
78877;SDS011;68257;43.514;1.498;2023-06-26T01:53:11;13.50;;;6.82;;
78877;SDS011;68257;43.514;1.498;2023-06-26T01:55:50;12.00;;;7.10;;
78877;SDS011;68257;43.514;1.498;2023-06-26T01:58:19;12.02;;;6.82;;
78877;SDS011;68257;43.514;1.498;2023-06-26T02:00:46;12.57;;;6.72;;
78877;SDS011;68257;43.514;1.498;2023-06-26T02:03:12;13.90;;;7.27;;
78877;SDS011;68257;43.514;1.498;2023-06-26T02:05:37;11.87;;;7.00;;
78877;SDS011;68257;43.514;1.498;2023-06-26T02:08:03;12.00;;;6.40;;
78877;SDS011;68257;43.514;1.498;2023-06-26T02:10:29;12.57;;;6.80;;
78877;SDS011;68257;43.514;1.498;2023-06-26T02:12:55;11.90;;;6.60;;
78877;SDS011;68257;43.514;1.498;2023-06-26T02:15:20;13.97;;;7.10;;
78877;SDS011;68257;43.514;1.498;2023-06-26T02:17:45;13.50;;;6.57;;
78877;SDS011;68257;43.514;1.498;2023-06-26T02:20:13;18.38;;;7.63;;
78877;SDS011;68257;43.514;1.498;2023-06-26T02:22:39;12.25;;;7.22;;
78877;SDS011;68257;43.514;1.498;2023-06-26T02:25:04;13.90;;;7.70;;
78877;SDS011;68257;43.514;1.498;2023-06-26T02:27:30;11.80;;;7.00;;
78877;SDS011;68257;43.514;1.498;2023-06-26T02:29:55;13.17;;;7.40;;
78877;SDS011;68257;43.514;1.498;2023-06-26T02:32:21;13.27;;;7.70;;
78877;SDS011;68257;43.514;1.498;2023-06-26T02:34:46;13.67;;;7.80;;
78877;SDS011;68257;43.514;1.498;2023-06-26T02:37:12;18.15;;;8.20;;
78877;SDS011;68257;43.514;1.498;2023-06-26T02:39:37;14.50;;;7.83;;
78877;SDS011;68257;43.514;1.498;2023-06-26T02:42:03;14.37;;;7.40;;
78877;SDS011;68257;43.514;1.498;2023-06-26T02:44:28;13.77;;;7.70;;
78877;SDS011;68257;43.514;1.498;2023-06-26T02:46:54;16.17;;;7.77;;
78877;SDS011;68257;43.514;1.498;2023-06-26T02:49:19;14.63;;;7.83;;
78877;SDS011;68257;43.514;1.498;2023-06-26T02:51:44;17.07;;;7.87;;
78877;SDS011;68257;43.514;1.498;2023-06-26T02:54:10;13.87;;;8.27;;
78877;SDS011;68257;43.514;1.498;2023-06-26T02:56:35;15.80;;;7.80;;
78877;SDS011;68257;43.514;1.498;2023-06-26T02:59:01;17.30;;;7.97;;
78877;SDS011;68257;43.514;1.498;2023-06-26T03:01:26;13.97;;;8.00;;
78877;SDS011;68257;43.514;1.498;2023-06-26T03:03:51;14.83;;;8.90;;
78877;SDS011;68257;43.514;1.498;2023-06-26T03:06:17;12.95;;;8.10;;
78877;SDS011;68257;43.514;1.498;2023-06-26T03:08:43;16.10;;;7.97;;
78877;SDS011;68257;43.514;1.498;2023-06-26T03:11:08;14.57;;;8.20;;
78877;SDS011;68257;43.514;1.498;2023-06-26T03:13:34;17.02;;;7.78;;
78877;SDS011;68257;43.514;1.498;2023-06-26T03:16:00;13.73;;;8.20;;
78877;SDS011;68257;43.514;1.498;2023-06-26T03:18:26;15.83;;;8.40;;
78877;SDS011;68257;43.514;1.498;2023-06-26T03:20:51;18.60;;;8.35;;
78877;SDS011;68257;43.514;1.498;2023-06-26T03:23:19;14.83;;;8.27;;
78877;SDS011;68257;43.514;1.498;2023-06-26T03:25:45;14.50;;;7.65;;
78877;SDS011;68257;43.514;1.498;2023-06-26T03:28:10;12.50;;;7.83;;
78877;SDS011;68257;43.514;1.498;2023-06-26T03:30:35;14.57;;;8.45;;
78877;SDS011;68257;43.514;1.498;2023-06-26T03:33:01;17.30;;;7.90;;
78877;SDS011;68257;43.514;1.498;2023-06-26T03:35:26;16.90;;;8.77;;
78877;SDS011;68257;43.514;1.498;2023-06-26T03:37:52;15.57;;;8.50;;
78877;SDS011;68257;43.514;1.498;2023-06-26T03:40:17;14.63;;;7.53;;
78877;SDS011;68257;43.514;1.498;2023-06-26T03:42:42;14.85;;;7.72;;
78877;SDS011;68257;43.514;1.498;2023-06-26T03:45:08;16.40;;;7.97;;
78877;SDS011;68257;43.514;1.498;2023-06-26T03:47:33;14.97;;;8.27;;
78877;SDS011;68257;43.514;1.498;2023-06-26T03:49:59;13.23;;;7.50;;
78877;SDS011;68257;43.514;1.498;2023-06-26T03:52:24;14.20;;;8.07;;
78877;SDS011;68257;43.514;1.498;2023-06-26T03:54:50;14.73;;;8.00;;
78877;SDS011;68257;43.514;1.498;2023-06-26T03:57:15;12.70;;;7.67;;
78877;SDS011;68257;43.514;1.498;2023-06-26T03:59:40;14.47;;;7.63;;
78877;SDS011;68257;43.514;1.498;2023-06-26T04:02:06;15.45;;;7.38;;
78877;SDS011;68257;43.514;1.498;2023-06-26T04:04:32;15.43;;;7.93;;
78877;SDS011;68257;43.514;1.498;2023-06-26T04:06:57;18.43;;;7.90;;
78877;SDS011;68257;43.514;1.498;2023-06-26T04:09:24;13.88;;;7.80;;
78877;SDS011;68257;43.514;1.498;2023-06-26T04:11:50;14.15;;;7.82;;
78877;SDS011;68257;43.514;1.498;2023-06-26T04:14:15;13.50;;;8.00;;
78877;SDS011;68257;43.514;1.498;2023-06-26T04:16:41;12.95;;;7.85;;
78877;SDS011;68257;43.514;1.498;2023-06-26T04:19:06;13.93;;;8.37;;
78877;SDS011;68257;43.514;1.498;2023-06-26T04:21:32;18.48;;;8.13;;
78877;SDS011;68257;43.514;1.498;2023-06-26T04:23:58;17.23;;;8.93;;
78877;SDS011;68257;43.514;1.498;2023-06-26T04:26:23;15.70;;;8.27;;
78877;SDS011;68257;43.514;1.498;2023-06-26T04:28:49;14.23;;;8.55;;
78877;SDS011;68257;43.514;1.498;2023-06-26T04:31:14;15.37;;;8.37;;
78877;SDS011;68257;43.514;1.498;2023-06-26T04:33:39;16.13;;;8.30;;
78877;SDS011;68257;43.514;1.498;2023-06-26T04:36:05;18.63;;;8.03;;
78877;SDS011;68257;43.514;1.498;2023-06-26T04:38:31;15.75;;;8.30;;
78877;SDS011;68257;43.514;1.498;2023-06-26T04:40:57;16.20;;;8.50;;
78877;SDS011;68257;43.514;1.498;2023-06-26T04:43:23;16.52;;;8.07;;
78877;SDS011;68257;43.514;1.498;2023-06-26T04:45:48;16.60;;;8.27;;
78877;SDS011;68257;43.514;1.498;2023-06-26T04:48:13;19.40;;;8.53;;
78877;SDS011;68257;43.514;1.498;2023-06-26T04:50:39;17.47;;;8.10;;
78877;SDS011;68257;43.514;1.498;2023-06-26T04:53:05;14.48;;;7.80;;
78877;SDS011;68257;43.514;1.498;2023-06-26T04:55:30;16.57;;;7.97;;
78877;SDS011;68257;43.514;1.498;2023-06-26T04:57:56;12.67;;;7.47;;
78877;SDS011;68257;43.514;1.498;2023-06-26T05:00:21;15.20;;;7.60;;
78877;SDS011;68257;43.514;1.498;2023-06-26T05:02:47;16.53;;;8.17;;
78877;SDS011;68257;43.514;1.498;2023-06-26T05:05:13;15.07;;;7.68;;
78877;SDS011;68257;43.514;1.498;2023-06-26T05:07:38;13.40;;;6.97;;
78877;SDS011;68257;43.514;1.498;2023-06-26T05:10:06;19.13;;;7.80;;
78877;SDS011;68257;43.514;1.498;2023-06-26T05:12:33;13.85;;;6.78;;
78877;SDS011;68257;43.514;1.498;2023-06-26T05:14:58;18.48;;;7.28;;
78877;SDS011;68257;43.514;1.498;2023-06-26T05:17:24;14.43;;;7.57;;
78877;SDS011;68257;43.514;1.498;2023-06-26T05:19:49;12.73;;;6.80;;
78877;SDS011;68257;43.514;1.498;2023-06-26T05:22:15;13.13;;;7.00;;
78877;SDS011;68257;43.514;1.498;2023-06-26T05:24:42;16.40;;;7.57;;
78877;SDS011;68257;43.514;1.498;2023-06-26T05:27:10;17.45;;;7.72;;
78877;SDS011;68257;43.514;1.498;2023-06-26T05:29:44;12.30;;;7.30;;
78877;SDS011;68257;43.514;1.498;2023-06-26T05:32:10;15.20;;;6.63;;
78877;SDS011;68257;43.514;1.498;2023-06-26T05:34:35;13.77;;;7.10;;
78877;SDS011;68257;43.514;1.498;2023-06-26T05:37:01;12.80;;;6.47;;
78877;SDS011;68257;43.514;1.498;2023-06-26T05:39:27;16.80;;;7.00;;
78877;SDS011;68257;43.514;1.498;2023-06-26T05:41:52;12.30;;;6.70;;
78877;SDS011;68257;43.514;1.498;2023-06-26T05:44:18;11.87;;;7.30;;
78877;SDS011;68257;43.514;1.498;2023-06-26T05:46:43;12.13;;;6.70;;
78877;SDS011;68257;43.514;1.498;2023-06-26T05:49:10;15.57;;;7.30;;
78877;SDS011;68257;43.514;1.498;2023-06-26T05:51:36;15.57;;;6.77;;
78877;SDS011;68257;43.514;1.498;2023-06-26T05:54:01;10.68;;;6.60;;
78877;SDS011;68257;43.514;1.498;2023-06-26T05:56:27;10.87;;;7.27;;
78877;SDS011;68257;43.514;1.498;2023-06-26T05:58:53;12.93;;;6.40;;
78877;SDS011;68257;43.514;1.498;2023-06-26T06:01:19;8.25;;;5.82;;
78877;SDS011;68257;43.514;1.498;2023-06-26T06:03:45;13.20;;;5.93;;
78877;SDS011;68257;43.514;1.498;2023-06-26T06:06:10;14.65;;;6.15;;
78877;SDS011;68257;43.514;1.498;2023-06-26T06:08:36;12.53;;;5.70;;
78877;SDS011;68257;43.514;1.498;2023-06-26T06:11:01;11.23;;;6.23;;
78877;SDS011;68257;43.514;1.498;2023-06-26T06:13:27;10.82;;;5.72;;
78877;SDS011;68257;43.514;1.498;2023-06-26T06:15:53;9.97;;;5.63;;
78877;SDS011;68257;43.514;1.498;2023-06-26T06:18:18;9.90;;;5.53;;
78877;SDS011;68257;43.514;1.498;2023-06-26T06:20:44;9.20;;;4.50;;
78877;SDS011;68257;43.514;1.498;2023-06-26T06:23:09;8.17;;;4.67;;
78877;SDS011;68257;43.514;1.498;2023-06-26T06:25:34;10.50;;;5.40;;
78877;SDS011;68257;43.514;1.498;2023-06-26T06:28:00;8.07;;;4.90;;
78877;SDS011;68257;43.514;1.498;2023-06-26T06:30:25;8.85;;;4.72;;
78877;SDS011;68257;43.514;1.498;2023-06-26T06:32:52;9.07;;;5.00;;
78877;SDS011;68257;43.514;1.498;2023-06-26T06:35:18;10.50;;;4.93;;
78877;SDS011;68257;43.514;1.498;2023-06-26T06:37:43;9.77;;;5.03;;
78877;SDS011;68257;43.514;1.498;2023-06-26T06:40:09;10.13;;;4.97;;
78877;SDS011;68257;43.514;1.498;2023-06-26T06:42:35;9.77;;;4.80;;
78877;SDS011;68257;43.514;1.498;2023-06-26T06:45:04;8.80;;;5.17;;
78877;SDS011;68257;43.514;1.498;2023-06-26T06:47:31;8.93;;;5.05;;
78877;SDS011;68257;43.514;1.498;2023-06-26T06:49:57;10.73;;;5.50;;
78877;SDS011;68257;43.514;1.498;2023-06-26T06:52:22;9.07;;;4.90;;
78877;SDS011;68257;43.514;1.498;2023-06-26T06:54:57;9.00;;;5.07;;
78877;SDS011;68257;43.514;1.498;2023-06-26T06:57:30;8.07;;;4.78;;
78877;SDS011;68257;43.514;1.498;2023-06-26T06:59:55;7.03;;;4.53;;
78877;SDS011;68257;43.514;1.498;2023-06-26T07:02:21;8.57;;;4.87;;
78877;SDS011;68257;43.514;1.498;2023-06-26T07:04:46;8.98;;;4.68;;
78877;SDS011;68257;43.514;1.498;2023-06-26T07:07:12;8.17;;;4.90;;
78877;SDS011;68257;43.514;1.498;2023-06-26T07:09:38;11.17;;;5.00;;
78877;SDS011;68257;43.514;1.498;2023-06-26T07:12:04;9.93;;;5.45;;
78877;SDS011;68257;43.514;1.498;2023-06-26T07:14:30;9.10;;;4.97;;
78877;SDS011;68257;43.514;1.498;2023-06-26T07:16:55;10.63;;;5.20;;
78877;SDS011;68257;43.514;1.498;2023-06-26T07:19:20;9.50;;;5.13;;
78877;SDS011;68257;43.514;1.498;2023-06-26T07:21:46;10.00;;;5.23;;
78877;SDS011;68257;43.514;1.498;2023-06-26T07:24:12;8.82;;;5.22;;
78877;SDS011;68257;43.514;1.498;2023-06-26T07:26:37;10.77;;;4.83;;
78877;SDS011;68257;43.514;1.498;2023-06-26T07:29:03;9.13;;;5.00;;
78877;SDS011;68257;43.514;1.498;2023-06-26T07:31:29;8.47;;;5.37;;
78877;SDS011;68257;43.514;1.498;2023-06-26T07:33:54;10.30;;;6.10;;
78877;SDS011;68257;43.514;1.498;2023-06-26T07:36:20;12.37;;;5.13;;
78877;SDS011;68257;43.514;1.498;2023-06-26T07:38:45;11.00;;;5.60;;
78877;SDS011;68257;43.514;1.498;2023-06-26T07:41:11;10.50;;;5.83;;
78877;SDS011;68257;43.514;1.498;2023-06-26T07:43:36;11.67;;;5.70;;
78877;SDS011;68257;43.514;1.498;2023-06-26T07:46:01;10.97;;;5.50;;
78877;SDS011;68257;43.514;1.498;2023-06-26T07:48:27;11.53;;;5.20;;
78877;SDS011;68257;43.514;1.498;2023-06-26T07:50:52;11.93;;;5.87;;
78877;SDS011;68257;43.514;1.498;2023-06-26T07:53:18;9.45;;;5.07;;
78877;SDS011;68257;43.514;1.498;2023-06-26T07:55:44;10.37;;;5.50;;
78877;SDS011;68257;43.514;1.498;2023-06-26T07:58:09;9.47;;;5.43;;
78877;SDS011;68257;43.514;1.498;2023-06-26T08:00:36;9.50;;;5.20;;
78877;SDS011;68257;43.514;1.498;2023-06-26T08:03:01;10.27;;;5.18;;
78877;SDS011;68257;43.514;1.498;2023-06-26T08:05:27;9.43;;;5.10;;
78877;SDS011;68257;43.514;1.498;2023-06-26T08:07:52;7.67;;;4.93;;
78877;SDS011;68257;43.514;1.498;2023-06-26T08:10:18;13.55;;;5.25;;
78877;SDS011;68257;43.514;1.498;2023-06-26T08:12:43;11.37;;;5.47;;
78877;SDS011;68257;43.514;1.498;2023-06-26T08:17:23;10.30;;;5.00;;
78877;SDS011;68257;43.514;1.498;2023-06-26T08:19:48;10.85;;;4.82;;
78877;SDS011;68257;43.514;1.498;2023-06-26T08:22:13;12.57;;;5.10;;
78877;SDS011;68257;43.514;1.498;2023-06-26T08:24:39;11.53;;;5.13;;
78877;SDS011;68257;43.514;1.498;2023-06-26T08:27:04;11.63;;;5.00;;
78877;SDS011;68257;43.514;1.498;2023-06-26T08:29:30;11.27;;;4.85;;
78877;SDS011;68257;43.514;1.498;2023-06-26T08:31:56;11.40;;;5.10;;
78877;SDS011;68257;43.514;1.498;2023-06-26T08:34:21;8.90;;;4.83;;
78877;SDS011;68257;43.514;1.498;2023-06-26T08:36:47;12.80;;;5.47;;
78877;SDS011;68257;43.514;1.498;2023-06-26T08:39:12;10.73;;;4.53;;
78877;SDS011;68257;43.514;1.498;2023-06-26T08:41:37;9.93;;;4.70;;
78877;SDS011;68257;43.514;1.498;2023-06-26T08:44:03;8.00;;;4.60;;
78877;SDS011;68257;43.514;1.498;2023-06-26T08:46:29;9.52;;;4.60;;
78877;SDS011;68257;43.514;1.498;2023-06-26T08:48:55;11.17;;;4.77;;
78877;SDS011;68257;43.514;1.498;2023-06-26T08:51:21;7.80;;;4.40;;
78877;SDS011;68257;43.514;1.498;2023-06-26T08:53:52;8.80;;;4.15;;
78877;SDS011;68257;43.514;1.498;2023-06-26T08:56:22;11.70;;;4.43;;
78877;SDS011;68257;43.514;1.498;2023-06-26T08:58:48;7.23;;;4.20;;
78877;SDS011;68257;43.514;1.498;2023-06-26T09:01:14;8.13;;;4.50;;
78877;SDS011;68257;43.514;1.498;2023-06-26T09:03:39;9.63;;;4.50;;
78877;SDS011;68257;43.514;1.498;2023-06-26T09:06:06;8.25;;;4.10;;
78877;SDS011;68257;43.514;1.498;2023-06-26T09:08:32;12.20;;;6.10;;
78877;SDS011;68257;43.514;1.498;2023-06-26T09:10:57;8.13;;;4.20;;
78877;SDS011;68257;43.514;1.498;2023-06-26T09:13:23;9.07;;;4.13;;
78877;SDS011;68257;43.514;1.498;2023-06-26T09:15:48;6.43;;;4.03;;
78877;SDS011;68257;43.514;1.498;2023-06-26T09:18:13;8.35;;;4.32;;
78877;SDS011;68257;43.514;1.498;2023-06-26T09:20:43;8.70;;;4.53;;
78877;SDS011;68257;43.514;1.498;2023-06-26T09:23:08;8.20;;;4.20;;
78877;SDS011;68257;43.514;1.498;2023-06-26T09:25:37;9.13;;;4.00;;
78877;SDS011;68257;43.514;1.498;2023-06-26T09:28:03;8.82;;;3.97;;
78877;SDS011;68257;43.514;1.498;2023-06-26T09:30:29;10.63;;;3.97;;
78877;SDS011;68257;43.514;1.498;2023-06-26T09:32:57;8.05;;;3.95;;
78877;SDS011;68257;43.514;1.498;2023-06-26T09:35:22;9.27;;;4.00;;
78877;SDS011;68257;43.514;1.498;2023-06-26T09:37:48;7.40;;;4.00;;
78877;SDS011;68257;43.514;1.498;2023-06-26T09:40:14;10.43;;;3.88;;
78877;SDS011;68257;43.514;1.498;2023-06-26T09:42:41;8.03;;;3.90;;
78877;SDS011;68257;43.514;1.498;2023-06-26T09:45:07;8.13;;;3.67;;
78877;SDS011;68257;43.514;1.498;2023-06-26T09:47:33;9.03;;;4.10;;
78877;SDS011;68257;43.514;1.498;2023-06-26T09:49:59;7.15;;;3.70;;
78877;SDS011;68257;43.514;1.498;2023-06-26T09:52:26;8.80;;;3.90;;
78877;SDS011;68257;43.514;1.498;2023-06-26T09:55:07;7.18;;;3.60;;
78877;SDS011;68257;43.514;1.498;2023-06-26T09:57:35;6.78;;;3.60;;
78877;SDS011;68257;43.514;1.498;2023-06-26T10:00:04;7.77;;;3.77;;
78877;SDS011;68257;43.514;1.498;2023-06-26T10:02:30;8.45;;;3.95;;
78877;SDS011;68257;43.514;1.498;2023-06-26T10:04:55;10.13;;;4.20;;
78877;SDS011;68257;43.514;1.498;2023-06-26T10:07:21;7.22;;;4.15;;
78877;SDS011;68257;43.514;1.498;2023-06-26T10:09:47;8.00;;;4.10;;
78877;SDS011;68257;43.514;1.498;2023-06-26T10:12:23;8.65;;;4.30;;
78877;SDS011;68257;43.514;1.498;2023-06-26T10:14:58;7.20;;;3.78;;
78877;SDS011;68257;43.514;1.498;2023-06-26T10:17:28;8.32;;;4.20;;
78877;SDS011;68257;43.514;1.498;2023-06-26T10:19:54;6.43;;;4.00;;
78877;SDS011;68257;43.514;1.498;2023-06-26T10:22:21;11.67;;;5.00;;
78877;SDS011;68257;43.514;1.498;2023-06-26T10:24:50;9.13;;;4.10;;
78877;SDS011;68257;43.514;1.498;2023-06-26T10:27:20;8.98;;;4.60;;
78877;SDS011;68257;43.514;1.498;2023-06-26T10:29:50;8.93;;;4.50;;
78877;SDS011;68257;43.514;1.498;2023-06-26T10:32:18;7.95;;;4.72;;
78877;SDS011;68257;43.514;1.498;2023-06-26T10:34:45;10.73;;;4.90;;
78877;SDS011;68257;43.514;1.498;2023-06-26T10:37:11;7.82;;;4.60;;
78877;SDS011;68257;43.514;1.498;2023-06-26T10:39:46;10.60;;;4.40;;
78877;SDS011;68257;43.514;1.498;2023-06-26T10:42:16;8.60;;;4.32;;
78877;SDS011;68257;43.514;1.498;2023-06-26T10:44:44;10.38;;;5.03;;
78877;SDS011;68257;43.514;1.498;2023-06-26T10:47:11;9.30;;;4.50;;
78877;SDS011;68257;43.514;1.498;2023-06-26T10:49:37;8.70;;;4.45;;
78877;SDS011;68257;43.514;1.498;2023-06-26T10:52:05;9.10;;;4.60;;
78877;SDS011;68257;43.514;1.498;2023-06-26T10:54:31;9.80;;;5.18;;
78877;SDS011;68257;43.514;1.498;2023-06-26T10:56:57;7.90;;;4.55;;
78877;SDS011;68257;43.514;1.498;2023-06-26T10:59:27;10.33;;;4.63;;
78877;SDS011;68257;43.514;1.498;2023-06-26T11:01:57;11.02;;;4.75;;
78877;SDS011;68257;43.514;1.498;2023-06-26T11:07:29;8.38;;;4.80;;
78877;SDS011;68257;43.514;1.498;2023-06-26T11:12:44;8.40;;;4.60;;
78877;SDS011;68257;43.514;1.498;2023-06-26T11:15:13;7.82;;;4.88;;
78877;SDS011;68257;43.514;1.498;2023-06-26T11:17:40;8.73;;;4.22;;
78877;SDS011;68257;43.514;1.498;2023-06-26T11:20:07;8.48;;;4.30;;
78877;SDS011;68257;43.514;1.498;2023-06-26T11:22:37;7.57;;;4.20;;
78877;SDS011;68257;43.514;1.498;2023-06-26T11:25:04;9.02;;;4.25;;
78877;SDS011;68257;43.514;1.498;2023-06-26T11:27:43;10.63;;;4.60;;
78877;SDS011;68257;43.514;1.498;2023-06-26T11:30:09;8.38;;;4.55;;
78877;SDS011;68257;43.514;1.498;2023-06-26T11:32:36;9.55;;;4.43;;
78877;SDS011;68257;43.514;1.498;2023-06-26T11:35:02;9.20;;;4.57;;
78877;SDS011;68257;43.514;1.498;2023-06-26T11:37:29;8.05;;;4.38;;
78877;SDS011;68257;43.514;1.498;2023-06-26T11:39:56;7.45;;;4.20;;
78877;SDS011;68257;43.514;1.498;2023-06-26T11:42:21;7.17;;;4.23;;
78877;SDS011;68257;43.514;1.498;2023-06-26T11:44:47;9.70;;;5.10;;
78877;SDS011;68257;43.514;1.498;2023-06-26T11:47:16;8.50;;;5.20;;
78877;SDS011;68257;43.514;1.498;2023-06-26T11:49:43;8.20;;;4.60;;
78877;SDS011;68257;43.514;1.498;2023-06-26T11:52:09;7.65;;;4.53;;
78877;SDS011;68257;43.514;1.498;2023-06-26T11:54:34;10.13;;;4.80;;
78877;SDS011;68257;43.514;1.498;2023-06-26T11:57:00;8.93;;;4.70;;
78877;SDS011;68257;43.514;1.498;2023-06-26T11:59:38;8.45;;;4.43;;
78877;SDS011;68257;43.514;1.498;2023-06-26T12:02:07;6.40;;;4.18;;
78877;SDS011;68257;43.514;1.498;2023-06-26T12:04:35;7.67;;;4.03;;
78877;SDS011;68257;43.514;1.498;2023-06-26T12:07:02;6.88;;;3.90;;
78877;SDS011;68257;43.514;1.498;2023-06-26T12:09:30;6.00;;;3.97;;
78877;SDS011;68257;43.514;1.498;2023-06-26T12:11:55;7.97;;;4.45;;
78877;SDS011;68257;43.514;1.498;2023-06-26T12:14:22;6.53;;;4.60;;
78877;SDS011;68257;43.514;1.498;2023-06-26T12:16:48;7.40;;;4.18;;
78877;SDS011;68257;43.514;1.498;2023-06-26T12:19:14;7.43;;;4.20;;
78877;SDS011;68257;43.514;1.498;2023-06-26T12:24:06;7.10;;;4.53;;
78877;SDS011;68257;43.514;1.498;2023-06-26T12:26:33;7.28;;;4.22;;
78877;SDS011;68257;43.514;1.498;2023-06-26T12:29:03;8.82;;;4.72;;
78877;SDS011;68257;43.514;1.498;2023-06-26T12:31:29;8.38;;;4.60;;
78877;SDS011;68257;43.514;1.498;2023-06-26T12:33:56;6.78;;;4.35;;
78877;SDS011;68257;43.514;1.498;2023-06-26T12:36:21;8.27;;;4.80;;
78877;SDS011;68257;43.514;1.498;2023-06-26T12:38:48;7.47;;;4.60;;
78877;SDS011;68257;43.514;1.498;2023-06-26T12:41:14;8.27;;;4.85;;
78877;SDS011;68257;43.514;1.498;2023-06-26T12:43:40;7.70;;;4.70;;
78877;SDS011;68257;43.514;1.498;2023-06-26T12:46:06;7.40;;;4.40;;
78877;SDS011;68257;43.514;1.498;2023-06-26T12:48:38;7.75;;;4.68;;
78877;SDS011;68257;43.514;1.498;2023-06-26T12:51:12;8.43;;;4.63;;
78877;SDS011;68257;43.514;1.498;2023-06-26T12:53:38;7.95;;;4.40;;
78877;SDS011;68257;43.514;1.498;2023-06-26T12:56:05;7.47;;;4.93;;
78877;SDS011;68257;43.514;1.498;2023-06-26T12:58:31;10.32;;;5.22;;
78877;SDS011;68257;43.514;1.498;2023-06-26T13:00:57;7.72;;;4.95;;
78877;SDS011;68257;43.514;1.498;2023-06-26T13:03:23;9.57;;;5.13;;
78877;SDS011;68257;43.514;1.498;2023-06-26T13:05:49;7.80;;;5.13;;
78877;SDS011;68257;43.514;1.498;2023-06-26T13:08:14;8.37;;;4.77;;
78877;SDS011;68257;43.514;1.498;2023-06-26T13:10:42;8.40;;;4.70;;
78877;SDS011;68257;43.514;1.498;2023-06-26T13:13:09;10.10;;;4.63;;
78877;SDS011;68257;43.514;1.498;2023-06-26T13:15:35;9.45;;;4.70;;
78877;SDS011;68257;43.514;1.498;2023-06-26T13:18:00;8.70;;;4.50;;
78877;SDS011;68257;43.514;1.498;2023-06-26T13:20:26;8.95;;;5.10;;
78877;SDS011;68257;43.514;1.498;2023-06-26T13:22:51;7.50;;;4.60;;
78877;SDS011;68257;43.514;1.498;2023-06-26T13:25:18;8.75;;;4.65;;
78877;SDS011;68257;43.514;1.498;2023-06-26T13:27:44;7.50;;;4.63;;
78877;SDS011;68257;43.514;1.498;2023-06-26T13:30:09;9.67;;;4.70;;
78877;SDS011;68257;43.514;1.498;2023-06-26T13:32:35;8.32;;;4.97;;
78877;SDS011;68257;43.514;1.498;2023-06-26T13:35:00;8.13;;;4.70;;
78877;SDS011;68257;43.514;1.498;2023-06-26T13:37:25;8.30;;;4.73;;
78877;SDS011;68257;43.514;1.498;2023-06-26T13:39:51;7.13;;;4.50;;
78877;SDS011;68257;43.514;1.498;2023-06-26T13:42:17;6.77;;;4.40;;
78877;SDS011;68257;43.514;1.498;2023-06-26T13:44:43;7.93;;;4.73;;
78877;SDS011;68257;43.514;1.498;2023-06-26T13:47:09;8.13;;;4.20;;
78877;SDS011;68257;43.514;1.498;2023-06-26T13:49:38;7.77;;;4.40;;
78877;SDS011;68257;43.514;1.498;2023-06-26T13:52:04;7.80;;;4.70;;
78877;SDS011;68257;43.514;1.498;2023-06-26T13:54:30;8.00;;;4.47;;
78877;SDS011;68257;43.514;1.498;2023-06-26T13:57:04;8.88;;;4.40;;
78877;SDS011;68257;43.514;1.498;2023-06-26T13:59:30;7.77;;;4.73;;
78877;SDS011;68257;43.514;1.498;2023-06-26T14:01:56;7.20;;;4.80;;
78877;SDS011;68257;43.514;1.498;2023-06-26T14:04:21;9.23;;;5.10;;
78877;SDS011;68257;43.514;1.498;2023-06-26T14:06:47;14.07;;;4.50;;
78877;SDS011;68257;43.514;1.498;2023-06-26T14:09:12;9.33;;;4.60;;
78877;SDS011;68257;43.514;1.498;2023-06-26T14:11:38;6.90;;;4.43;;
78877;SDS011;68257;43.514;1.498;2023-06-26T14:14:03;8.07;;;4.60;;
78877;SDS011;68257;43.514;1.498;2023-06-26T14:16:29;7.13;;;4.90;;
78877;SDS011;68257;43.514;1.498;2023-06-26T14:18:54;7.87;;;4.83;;
78877;SDS011;68257;43.514;1.498;2023-06-26T14:21:20;11.20;;;4.72;;
78877;SDS011;68257;43.514;1.498;2023-06-26T14:23:46;9.17;;;4.77;;
78877;SDS011;68257;43.514;1.498;2023-06-26T14:26:11;9.55;;;5.25;;
78877;SDS011;68257;43.514;1.498;2023-06-26T14:28:37;8.20;;;4.80;;
78877;SDS011;68257;43.514;1.498;2023-06-26T14:31:03;9.13;;;4.68;;
78877;SDS011;68257;43.514;1.498;2023-06-26T14:33:28;8.70;;;4.80;;
78877;SDS011;68257;43.514;1.498;2023-06-26T14:35:54;7.83;;;5.10;;
78877;SDS011;68257;43.514;1.498;2023-06-26T14:38:19;8.77;;;4.60;;
78877;SDS011;68257;43.514;1.498;2023-06-26T14:40:45;8.93;;;4.87;;
78877;SDS011;68257;43.514;1.498;2023-06-26T14:43:10;7.70;;;4.70;;
78877;SDS011;68257;43.514;1.498;2023-06-26T14:45:36;10.38;;;4.95;;
78877;SDS011;68257;43.514;1.498;2023-06-26T14:48:01;10.43;;;4.93;;
78877;SDS011;68257;43.514;1.498;2023-06-26T14:50:27;6.40;;;4.50;;
78877;SDS011;68257;43.514;1.498;2023-06-26T14:52:52;7.23;;;4.60;;